createdAt,value
2022-09-16T00:00:44.979Z,13.14
2022-09-16T00:03:33.121Z,13.13
2022-09-16T00:06:20.404Z,13.13
2022-09-16T00:09:08.502Z,13.13
2022-09-16T00:11:55.646Z,13.09
2022-09-16T00:14:42.804Z,13.06
2022-09-16T00:17:29.817Z,13.11
2022-09-16T00:20:17.372Z,13.10
2022-09-16T00:23:04.457Z,13.11
2022-09-16T00:25:52.912Z,13.11
2022-09-16T00:28:41.398Z,13.11
2022-09-16T00:31:28.341Z,13.09
2022-09-16T00:34:15.601Z,13.09
2022-09-16T00:37:02.424Z,13.08
2022-09-16T00:39:50.514Z,13.08
2022-09-16T00:42:38.801Z,13.08
2022-09-16T00:45:35.646Z,13.04
2022-09-16T00:48:27.100Z,13.06
2022-09-16T00:51:23.511Z,13.04
2022-09-16T00:54:15.487Z,13.05
2022-09-16T00:57:05.160Z,13.03
2022-09-16T00:59:55.546Z,13.04
2022-09-16T01:02:44.224Z,13.03
2022-09-16T01:05:37.307Z,13.01
2022-09-16T01:08:25.353Z,13.02
2022-09-16T01:11:12.704Z,13.01
2022-09-16T01:14:00.943Z,13.00
2022-09-16T01:16:58.389Z,12.99
2022-09-16T01:20:16.801Z,12.98
2022-09-16T01:23:22.052Z,12.96
2022-09-16T01:26:36.216Z,12.95
2022-09-16T01:29:53.930Z,12.95
2022-09-16T01:32:49.246Z,12.93
2022-09-16T01:36:09.587Z,12.92
2022-09-16T01:39:25.798Z,12.92
2022-09-16T01:42:37.996Z,12.67
2022-09-16T01:45:46.984Z,12.91
2022-09-16T01:48:55.587Z,12.91
2022-09-16T01:51:48.281Z,12.91
2022-09-16T01:54:53.931Z,12.90
2022-09-16T01:57:49.708Z,12.91
2022-09-16T02:00:37.169Z,12.90
2022-09-16T02:03:29.260Z,12.90
2022-09-16T02:06:22.152Z,12.91
2022-09-16T02:09:24.987Z,12.89
2022-09-16T02:12:17.651Z,12.85
2022-09-16T02:15:08.075Z,12.89
2022-09-16T02:18:01.036Z,12.88
2022-09-16T02:20:52.092Z,12.88
2022-09-16T02:23:43.471Z,12.86
2022-09-16T02:26:34.578Z,12.86
2022-09-16T02:29:23.584Z,12.71
2022-09-16T02:32:15.387Z,12.85
2022-09-16T02:35:09.255Z,12.85
2022-09-16T02:38:10.579Z,12.84
2022-09-16T02:41:04.648Z,12.75
2022-09-16T02:43:52.372Z,12.84
2022-09-16T02:46:44.271Z,12.83
2022-09-16T02:49:32.671Z,12.82
2022-09-16T02:52:23.556Z,12.82
2022-09-16T02:55:17.911Z,12.83
2022-09-16T02:58:04.935Z,12.81
2022-09-16T03:00:56.591Z,12.80
2022-09-16T03:03:43.788Z,12.73
2022-09-16T03:06:40.057Z,12.78
2022-09-16T03:09:30.793Z,12.76
2022-09-16T03:12:29.770Z,12.77
2022-09-16T03:15:29.695Z,12.76
2022-09-16T03:18:42.529Z,12.66
2022-09-16T03:21:41.605Z,12.64
2022-09-16T03:24:56.465Z,12.75
2022-09-16T03:28:10.691Z,12.77
2022-09-16T03:31:24.539Z,12.73
2022-09-16T03:34:17.928Z,12.71
2022-09-16T03:37:10.748Z,12.75
2022-09-16T03:39:58.408Z,12.67
2022-09-16T03:42:45.742Z,12.75
2022-09-16T03:45:36.759Z,12.75
2022-09-16T03:48:23.777Z,12.74
2022-09-16T03:51:10.880Z,12.74
2022-09-16T03:53:57.812Z,12.72
2022-09-16T03:56:44.996Z,12.74
2022-09-16T03:59:31.785Z,12.68
2022-09-16T04:02:18.986Z,12.76
2022-09-16T04:05:06.077Z,12.75
2022-09-16T04:07:53.467Z,12.58
2022-09-16T04:10:40.335Z,12.76
2022-09-16T04:13:27.360Z,12.76
2022-09-16T04:16:14.245Z,12.75
2022-09-16T04:19:01.573Z,12.74
2022-09-16T04:21:48.628Z,12.76
2022-09-16T04:24:35.682Z,12.66
2022-09-16T04:27:22.508Z,12.75
2022-09-16T04:30:09.631Z,12.75
2022-09-16T04:32:56.633Z,12.67
2022-09-16T04:35:44.281Z,12.74
2022-09-16T04:38:31.085Z,12.73
2022-09-16T04:41:23.236Z,12.72
2022-09-16T04:44:16.038Z,12.69
2022-09-16T04:47:03.159Z,12.62
2022-09-16T04:49:50.047Z,12.72
2022-09-16T04:52:36.947Z,12.72
2022-09-16T04:55:24.166Z,12.72
2022-09-16T04:58:11.697Z,12.72
2022-09-16T05:00:58.508Z,12.66
2022-09-16T05:03:45.764Z,12.69
2022-09-16T05:06:35.748Z,12.67
2022-09-16T05:09:23.327Z,12.66
2022-09-16T05:12:10.161Z,12.66
2022-09-16T05:14:57.279Z,12.53
2022-09-16T05:17:51.378Z,12.65
2022-09-16T05:20:39.136Z,12.65
2022-09-16T05:23:25.921Z,12.60
2022-09-16T05:26:13.577Z,12.64
2022-09-16T05:29:00.943Z,12.64
2022-09-16T05:31:50.209Z,12.66
2022-09-16T05:34:40.157Z,12.64
2022-09-16T05:37:27.292Z,12.63
2022-09-16T05:40:14.167Z,12.61
2022-09-16T05:43:01.273Z,12.61
2022-09-16T05:45:48.188Z,12.61
2022-09-16T05:48:35.073Z,12.62
2022-09-16T05:51:26.768Z,12.62
2022-09-16T05:54:14.937Z,12.64
2022-09-16T05:57:06.590Z,12.64
2022-09-16T05:59:54.160Z,12.65
2022-09-16T06:02:41.103Z,12.66
2022-09-16T06:05:28.381Z,12.66
2022-09-16T06:08:17.084Z,12.69
2022-09-16T06:11:04.127Z,12.71
2022-09-16T06:13:51.396Z,12.72
2022-09-16T06:16:38.389Z,12.72
2022-09-16T06:19:34.388Z,12.73
2022-09-16T06:22:21.398Z,12.74
2022-09-16T06:25:08.304Z,12.75
2022-09-16T06:27:55.264Z,12.72
2022-09-16T06:30:42.110Z,12.76
2022-09-16T06:33:29.124Z,12.77
2022-09-16T06:36:16.013Z,12.77
2022-09-16T06:39:02.979Z,12.78
2022-09-16T06:41:52.116Z,12.66
2022-09-16T06:44:43.368Z,12.77
2022-09-16T06:47:30.147Z,12.76
2022-09-16T06:50:17.129Z,12.76
2022-09-16T06:53:04.038Z,12.64
2022-09-16T06:55:51.064Z,12.74
2022-09-16T06:58:37.860Z,12.72
2022-09-16T07:01:29.221Z,12.70
2022-09-16T07:04:17.312Z,12.66
2022-09-16T07:07:11.206Z,12.65
2022-09-16T07:09:58.356Z,12.65
2022-09-16T07:12:45.297Z,12.65
2022-09-16T07:15:32.127Z,12.66
2022-09-16T07:18:19.360Z,12.59
2022-09-16T07:21:06.759Z,12.69
2022-09-16T07:23:55.747Z,12.72
2022-09-16T07:26:45.203Z,12.74
2022-09-16T07:29:34.460Z,12.78
2022-09-16T07:32:21.775Z,12.81
2022-09-16T07:35:08.638Z,12.84
2022-09-16T07:37:55.625Z,12.82
2022-09-16T07:40:25.421Z,12.87
2022-09-16T07:43:15.223Z,12.87
2022-09-16T07:46:02.193Z,12.89
2022-09-16T07:48:52.170Z,12.90
2022-09-16T07:51:41.897Z,12.90
2022-09-16T07:54:31.945Z,12.93
2022-09-16T07:57:18.921Z,12.93
2022-09-16T08:00:05.951Z,12.93
2022-09-16T08:02:38.545Z,12.84
2022-09-16T08:05:25.887Z,12.94
2022-09-16T08:08:12.906Z,12.96
2022-09-16T08:11:00.019Z,12.99
2022-09-16T08:13:48.441Z,13.00
2022-09-16T08:16:38.295Z,13.03
2022-09-16T08:19:25.296Z,13.07
2022-09-16T08:22:12.294Z,13.09
2022-09-16T08:24:59.999Z,13.05
2022-09-16T08:27:46.856Z,13.12
2022-09-16T08:30:34.726Z,13.12
2022-09-16T08:33:21.584Z,13.14
2022-09-16T08:36:28.172Z,13.17
2022-09-16T08:39:16.312Z,13.18
2022-09-16T08:42:27.996Z,13.22
2022-09-16T08:45:27.219Z,13.29
2022-09-16T08:48:28.608Z,13.35
2022-09-16T08:51:18.847Z,13.41
2022-09-16T08:54:08.747Z,13.47
2022-09-16T08:56:58.421Z,13.52
2022-09-16T08:59:48.879Z,13.58
2022-09-16T09:03:11.180Z,13.64
2022-09-16T09:05:52.561Z,13.68
2022-09-16T09:08:22.085Z,13.82
2022-09-16T09:11:12.041Z,13.88
2022-09-16T09:14:01.549Z,13.94
2022-09-16T09:17:06.090Z,14.02
2022-09-16T09:20:14.669Z,14.06
2022-09-16T09:23:13.516Z,14.10
2022-09-16T09:26:09.392Z,14.15
2022-09-16T09:28:56.142Z,14.20
2022-09-16T09:32:11.092Z,14.23
2022-09-16T09:35:22.790Z,14.26
2022-09-16T09:38:33.968Z,14.27
2022-09-16T09:41:40.911Z,14.27
2022-09-16T09:44:46.445Z,14.28
2022-09-16T09:47:53.970Z,14.32
2022-09-16T09:51:05.486Z,14.35
2022-09-16T09:54:05.824Z,14.38
2022-09-16T09:57:01.931Z,14.41
2022-09-16T10:00:07.108Z,14.43
2022-09-16T10:03:01.571Z,14.43
2022-09-16T10:05:49.396Z,14.44
2022-09-16T10:08:44.197Z,14.44
2022-09-16T10:11:43.018Z,14.43
2022-09-16T10:14:43.753Z,14.40
2022-09-16T10:17:37.755Z,14.42
2022-09-16T10:20:41.361Z,14.40
2022-09-16T10:23:34.640Z,14.36
2022-09-16T10:26:38.991Z,14.32
2022-09-16T10:29:38.587Z,14.30
2022-09-16T10:32:28.831Z,14.25
2022-09-16T10:35:16.420Z,14.24
2022-09-16T10:38:10.776Z,14.18
2022-09-16T10:40:57.862Z,14.15
2022-09-16T10:43:46.368Z,14.15
2022-09-16T10:46:35.986Z,14.15
2022-09-16T10:49:30.760Z,14.16
2022-09-16T10:52:28.217Z,14.16
2022-09-16T10:55:16.188Z,14.16
2022-09-16T10:58:03.416Z,14.11
2022-09-16T11:00:57.479Z,14.14
2022-09-16T11:04:21.838Z,14.13
2022-09-16T11:07:16.911Z,14.15
2022-09-16T11:10:28.291Z,14.17
2022-09-16T11:13:42.327Z,14.21
2022-09-16T11:16:40.136Z,14.24
2022-09-16T11:20:08.667Z,14.27
2022-09-16T11:23:06.303Z,14.30
2022-09-16T11:26:14.523Z,14.29
2022-09-16T11:29:14.124Z,14.29
2022-09-16T11:32:41.999Z,14.29
2022-09-16T11:35:42.084Z,14.33
2022-09-16T11:39:06.247Z,14.37
2022-09-16T11:42:04.551Z,14.42
2022-09-16T11:45:18.303Z,14.44
2022-09-16T11:48:28.455Z,14.45
2022-09-16T11:51:31.760Z,14.46
2022-09-16T11:54:37.369Z,14.47
2022-09-16T11:57:31.409Z,14.54
2022-09-16T12:00:22.541Z,14.56
2022-09-16T12:03:29.406Z,14.59
2022-09-16T12:06:27.953Z,14.57
2022-09-16T12:09:21.217Z,14.60
2022-09-16T12:12:16.990Z,14.55
2022-09-16T12:15:10.294Z,14.51
2022-09-16T12:18:00.231Z,14.60
2022-09-16T12:20:55.081Z,14.62
2022-09-16T12:23:49.673Z,14.61
2022-09-16T12:26:50.212Z,14.59
2022-09-16T12:29:58.907Z,14.59
2022-09-16T12:32:57.748Z,14.60
2022-09-16T12:35:51.031Z,14.62
2022-09-16T12:38:40.344Z,14.67
2022-09-16T12:41:39.444Z,14.68
2022-09-16T12:44:52.538Z,14.70
2022-09-16T12:48:08.363Z,14.69
2022-09-16T12:51:07.459Z,14.66
2022-09-16T12:53:52.036Z,14.63
2022-09-16T12:57:00.536Z,14.61
2022-09-16T12:59:53.726Z,14.59
2022-09-16T13:02:50.724Z,14.57
2022-09-16T13:05:49.011Z,14.56
2022-09-16T13:09:02.048Z,14.58
2022-09-16T13:15:10.448Z,14.59
2022-09-16T13:18:00.033Z,14.59
2022-09-16T13:20:52.636Z,14.60
2022-09-16T13:23:53.940Z,14.60
2022-09-16T13:26:41.023Z,14.59
2022-09-16T13:29:46.787Z,14.55
2022-09-16T13:32:42.879Z,14.53
2022-09-16T13:35:36.527Z,14.54
2022-09-16T13:38:44.495Z,14.56
2022-09-16T13:41:33.789Z,14.51
2022-09-16T13:44:21.281Z,14.56
2022-09-16T13:47:08.704Z,14.57
2022-09-16T13:50:03.165Z,14.56
2022-09-16T13:52:52.745Z,14.55
2022-09-16T13:55:46.669Z,14.51
2022-09-16T13:58:47.660Z,14.49
2022-09-16T14:01:59.362Z,14.46
2022-09-16T14:04:49.869Z,14.47
2022-09-16T14:08:27.019Z,14.46
2022-09-16T14:11:27.940Z,14.43
2022-09-16T14:14:47.533Z,14.40
2022-09-16T14:17:44.838Z,14.34
2022-09-16T14:20:38.525Z,14.37
2022-09-16T14:23:37.152Z,14.35
2022-09-16T14:26:38.819Z,14.33
2022-09-16T14:29:25.857Z,14.35
2022-09-16T14:32:14.820Z,14.34
2022-09-16T14:35:01.992Z,14.33
2022-09-16T14:37:51.419Z,14.32
2022-09-16T14:40:42.224Z,14.30
2022-09-16T14:43:35.598Z,14.27
2022-09-16T18:37:32.159Z,13.13
2022-09-16T18:39:59.267Z,13.14
2022-09-16T18:42:26.183Z,13.15
2022-09-16T18:44:53.102Z,13.15
2022-09-16T18:47:20.364Z,13.16
2022-09-16T18:49:47.191Z,13.16
2022-09-16T18:52:14.216Z,13.16
2022-09-16T18:54:41.480Z,13.16
2022-09-16T18:57:09.276Z,13.16
2022-09-16T18:59:37.169Z,13.17
2022-09-16T19:02:05.510Z,13.16
2022-09-16T19:04:38.546Z,13.16
2022-09-16T19:07:08.105Z,13.17
2022-09-16T19:09:38.215Z,13.17
2022-09-16T19:12:07.015Z,13.17
2022-09-16T19:14:34.223Z,13.17
2022-09-16T19:17:01.107Z,13.16
2022-09-16T19:19:28.258Z,13.16
2022-09-16T19:21:55.561Z,13.16
2022-09-16T19:24:24.798Z,13.14
2022-09-16T19:26:54.313Z,13.14
2022-09-16T19:29:22.147Z,13.14
2022-09-16T19:31:54.703Z,13.14
2022-09-16T19:34:22.632Z,13.14
2022-09-16T19:36:49.862Z,13.13
2022-09-16T19:39:17.004Z,13.13
2022-09-16T19:41:45.296Z,13.11
2022-09-16T19:44:14.785Z,13.11
2022-09-16T19:46:47.135Z,13.08
2022-09-16T19:49:19.920Z,13.08
2022-09-16T19:51:48.401Z,13.06
2022-09-16T19:54:16.440Z,13.07
2022-09-16T19:56:48.186Z,13.05
2022-09-16T19:59:17.987Z,13.06
2022-09-16T20:01:45.050Z,13.05
2022-09-16T20:04:12.223Z,13.03
2022-09-16T20:06:41.691Z,13.01
2022-09-16T20:09:14.252Z,12.99
2022-09-16T20:11:44.727Z,13.00
2022-09-16T20:14:16.294Z,12.99
2022-09-16T20:16:43.963Z,12.98
2022-09-16T20:19:13.925Z,12.96
2022-09-16T20:21:41.669Z,12.96
2022-09-16T20:24:14.544Z,12.95
2022-09-16T20:26:41.556Z,12.95
2022-09-16T20:29:08.540Z,12.94
2022-09-16T20:31:36.864Z,12.94
2022-09-16T20:34:04.663Z,12.93
2022-09-16T20:36:35.859Z,12.93
2022-09-16T20:39:04.073Z,12.85
2022-09-16T20:41:33.255Z,12.91
2022-09-16T20:44:00.439Z,12.80
2022-09-16T20:46:33.019Z,12.88
2022-09-16T20:49:01.804Z,12.88
2022-09-16T20:51:33.653Z,12.87
2022-09-16T20:54:07.743Z,12.85
2022-09-16T20:56:38.967Z,12.88
2022-09-16T20:59:08.313Z,12.87
2022-09-16T21:01:37.068Z,12.87
2022-09-16T21:04:06.622Z,12.84
2022-09-16T21:06:35.528Z,12.85
2022-09-16T21:09:05.541Z,12.84
2022-09-16T21:11:33.333Z,12.72
2022-09-16T21:14:04.140Z,12.83
2022-09-16T21:16:34.208Z,12.80
2022-09-16T21:19:04.264Z,12.82
2022-09-16T21:21:32.125Z,12.80
2022-09-16T21:24:01.384Z,12.79
2022-09-16T21:26:31.159Z,12.78
2022-09-16T21:29:01.119Z,12.77
2022-09-16T21:31:33.615Z,12.76
2022-09-16T21:34:03.135Z,12.76
2022-09-16T21:36:31.275Z,12.74
2022-09-16T21:38:59.318Z,12.72
2022-09-16T21:41:26.672Z,12.66
2022-09-16T21:43:55.771Z,12.70
2022-09-16T21:46:27.234Z,12.68
2022-09-16T21:49:01.177Z,12.67
2022-09-16T21:51:35.440Z,12.66
2022-09-16T21:54:07.464Z,12.66
2022-09-16T21:56:38.478Z,12.66
2022-09-16T21:59:26.085Z,12.65
2022-09-16T22:02:13.262Z,12.64
2022-09-16T22:05:00.165Z,12.63
2022-09-16T22:07:47.607Z,12.64
2022-09-16T22:10:34.664Z,12.62
2022-09-16T22:13:21.824Z,12.61
2022-09-16T22:16:12.121Z,12.47
2022-09-16T22:18:59.656Z,12.58
2022-09-16T22:21:49.444Z,12.57
2022-09-16T22:24:37.553Z,12.56
2022-09-16T22:27:24.575Z,12.55
2022-09-16T22:30:11.522Z,12.52
2022-09-16T22:32:58.324Z,12.50
2022-09-16T22:35:45.402Z,12.49
2022-09-16T22:38:32.192Z,12.47
2022-09-16T22:41:23.796Z,12.45
2022-09-16T22:44:12.298Z,12.42
2022-09-16T22:47:04.403Z,12.39
2022-09-16T22:49:51.289Z,12.36
2022-09-16T22:52:38.316Z,12.34
2022-09-16T22:55:26.024Z,12.31
2022-09-16T22:58:13.124Z,12.29
2022-09-16T23:01:00.030Z,12.26
2022-09-16T23:03:47.029Z,12.23
2022-09-16T23:06:35.520Z,12.20
2022-09-16T23:09:23.656Z,12.17
2022-09-16T23:12:10.640Z,12.16
2022-09-16T23:14:57.576Z,12.14
2022-09-16T23:17:44.440Z,12.08
2022-09-16T23:20:31.571Z,12.10
2022-09-16T23:23:18.548Z,12.06
2022-09-16T23:26:05.444Z,12.04
2022-09-16T23:28:52.898Z,12.02
2022-09-16T23:31:42.783Z,12.00
2022-09-16T23:34:38.720Z,11.99
2022-09-16T23:37:25.600Z,11.99
2022-09-16T23:40:12.576Z,11.99
2022-09-16T23:42:59.608Z,11.98
2022-09-16T23:45:46.478Z,11.97
2022-09-16T23:48:33.689Z,11.96
2022-09-16T23:51:23.591Z,11.93
2022-09-16T23:54:14.857Z,11.89
2022-09-16T23:57:01.856Z,11.93
2022-09-16T23:59:48.737Z,11.95
